Time;durP1;ratioP1;P1;durP2;ratioP2;P2;SDS_P1;SDS_P2;PMS_P1;PMS_P2;Temp;Humidity;BMP_temperature;BMP_pressure;BME280_temperature;BME280_humidity;BME280_pressure;Samples;Min_cycle;Max_cycle;Signal;HPM_P1;HPM_P2
2022/03/13 05:54:30;;;;;;;37.50;11.40;;;;;;;-3.95;52.77;101268.86;105713;1274;26019;-56
2022/03/13 05:57:04;;;;;;;39.40;12.60;;;;;;;-3.94;52.70;101268.33;105713;1274;22555;-55
2022/03/13 05:59:36;;;;;;;34.70;12.50;;;;;;;-3.91;52.71;101271.35;105885;1274;25311;-54
2022/03/13 06:02:09;;;;;;;37.40;11.20;;;;;;;-3.88;52.85;101272.20;106093;1274;24299;-57
2022/03/13 06:04:40;;;;;;;37.40;11.90;;;;;;;-3.86;52.83;101271.77;106045;1274;25666;-58
2022/03/13 06:07:11;;;;;;;36.80;11.30;;;;;;;-3.81;52.93;101272.89;105950;1275;22711;-55
2022/03/13 06:09:43;;;;;;;34.50;12.90;;;;;;;-3.76;52.91;101274.55;106081;1274;25031;-56
2022/03/13 06:12:16;;;;;;;38.70;13.60;;;;;;;-3.72;53.01;101280.59;105911;1274;22797;-55
2022/03/13 06:14:48;;;;;;;86.60;33.80;;;;;;;-3.67;53.04;101281.71;105824;1275;24336;-58
2022/03/13 06:17:19;;;;;;;82.40;31.50;;;;;;;-3.61;53.05;101280.35;105867;1274;27303;-57
2022/03/13 06:19:51;;;;;;;80.10;33.30;;;;;;;-3.56;53.10;101286.77;106164;1274;22598;-55
2022/03/13 06:22:22;;;;;;;69.70;28.30;;;;;;;-3.49;53.11;101289.17;105861;1275;22683;-55
2022/03/13 06:24:54;;;;;;;54.50;22.40;;;;;;;-3.42;53.13;101291.81;105827;1274;24412;-58
2022/03/13 06:27:26;;;;;;;44.90;18.50;;;;;;;-3.34;53.10;101296.73;105934;1274;22636;-57
2022/03/13 06:30:10;;;;;;;57.60;19.50;;;;;;;-3.25;53.02;101294.48;105843;1274;23175;-54
2022/03/13 06:32:43;;;;;;;52.30;18.90;;;;;;;-3.17;53.02;101296.83;105894;1275;22814;-57
2022/03/13 06:35:16;;;;;;;44.30;15.90;;;;;;;-3.07;52.92;101298.96;105843;1274;25316;-53
2022/03/13 06:37:49;;;;;;;47.80;16.60;;;;;;;-2.96;52.89;101300.52;105944;1274;22572;-58
2022/03/13 06:40:22;;;;;;;42.70;15.40;;;;;;;-2.85;52.69;101300.95;105975;1274;25244;-58
2022/03/13 06:42:55;;;;;;;45.90;14.70;;;;;;;-2.74;52.68;101300.85;105964;1274;22583;-56
2022/03/13 06:45:27;;;;;;;40.60;15.10;;;;;;;-2.65;52.63;101305.77;105972;1274;24224;-65
2022/03/13 06:47:59;;;;;;;37.30;12.60;;;;;;;-2.55;52.65;101306.57;105726;1274;22706;-57
2022/03/13 06:50:30;;;;;;;41.90;12.70;;;;;;;-2.44;52.63;101309.16;105864;1274;25607;-57
2022/03/13 06:53:01;;;;;;;34.30;12.30;;;;;;;-2.34;52.69;101303.95;106112;1274;22677;-57
2022/03/13 06:55:34;;;;;;;34.80;12.50;;;;;;;-2.24;52.56;101306.05;105925;1274;24364;-57
2022/03/13 06:58:05;;;;;;;31.70;10.30;;;;;;;-2.15;52.32;101304.02;105877;1274;22790;-58
2022/03/13 07:00:37;;;;;;;31.10;10.00;;;;;;;-2.05;52.40;101305.73;105931;1274;24305;-54
2022/03/13 07:03:08;;;;;;;29.80;8.70;;;;;;;-1.95;52.03;101301.88;105937;1274;22668;-57
2022/03/13 07:05:39;;;;;;;34.30;9.20;;;;;;;-1.85;51.89;101310.42;106122;1274;25526;-57
2022/03/13 07:08:11;;;;;;;31.10;9.90;;;;;;;-1.73;51.48;101306.74;105912;1274;25438;-56
2022/03/13 07:10:43;;;;;;;30.30;9.10;;;;;;;-1.61;51.58;101310.35;105669;1274;23231;-57
2022/03/13 07:13:18;;;;;;;30.80;9.90;;;;;;;-1.52;51.43;101307.25;105639;1274;25586;-59
2022/03/13 07:15:49;;;;;;;27.40;9.30;;;;;;;-1.40;51.27;101308.58;105832;1274;24210;-59
2022/03/13 07:18:21;;;;;;;27.60;9.40;;;;;;;-1.31;51.04;101306.13;105925;1274;22907;-60
2022/03/13 07:20:53;;;;;;;32.30;10.60;;;;;;;-1.19;50.95;101305.25;105757;1274;25659;-59
2022/03/13 07:23:25;;;;;;;32.70;11.30;;;;;;;-1.09;50.80;101306.92;106059;1274;22714;-59
2022/03/13 07:25:57;;;;;;;32.10;10.80;;;;;;;-0.97;50.68;101307.46;105805;1274;22900;-59
2022/03/13 07:28:29;;;;;;;39.50;12.00;;;;;;;-0.86;50.58;101306.95;106064;1271;22669;-60
2022/03/13 07:31:02;;;;;;;32.70;10.80;;;;;;;-0.76;50.48;101304.92;106002;1271;22675;-59
2022/03/13 07:33:34;;;;;;;30.80;10.10;;;;;;;-0.64;50.22;101305.20;106158;1270;24234;-58
2022/03/13 07:36:06;;;;;;;36.00;12.10;;;;;;;-0.51;50.12;101303.91;105948;1271;22684;-57
2022/03/13 07:38:38;;;;;;;36.40;10.40;;;;;;;-0.40;49.89;101302.66;106095;1271;22840;-60
2022/03/13 07:41:11;;;;;;;33.30;11.30;;;;;;;-0.29;49.81;101307.31;106302;1271;22754;-59
2022/03/13 07:43:42;;;;;;;29.40;10.60;;;;;;;-0.14;49.60;101303.82;106596;1271;22702;-56
2022/03/13 07:46:14;;;;;;;27.60;9.90;;;;;;;0.06;49.40;101304.52;106105;1271;22727;-56
2022/03/13 07:48:46;;;;;;;28.90;9.80;;;;;;;0.24;49.33;101310.28;105975;1271;22971;-57
2022/03/13 07:51:19;;;;;;;32.50;9.90;;;;;;;0.38;49.16;101314.36;106184;1271;22664;-59
2022/03/13 07:53:51;;;;;;;29.80;9.20;;;;;;;0.52;49.00;101307.70;106091;1271;22816;-56
2022/03/13 07:56:23;;;;;;;27.30;8.80;;;;;;;0.68;48.71;101308.09;105934;1270;25528;-58
2022/03/13 07:58:55;;;;;;;25.50;8.20;;;;;;;0.88;48.33;101308.78;105893;1271;24078;-55
2022/03/13 08:01:27;;;;;;;25.20;8.00;;;;;;;1.06;48.06;101305.70;105824;1271;22908;-53
2022/03/13 08:04:01;;;;;;;26.90;8.00;;;;;;;1.22;47.66;101304.02;106071;1271;24002;-54
2022/03/13 08:06:34;;;;;;;38.50;11.60;;;;;;;1.32;47.54;101303.87;105956;1271;22737;-55
2022/03/13 08:09:07;;;;;;;28.70;10.90;;;;;;;1.42;47.19;101300.41;105855;1271;24214;-57
2022/03/13 08:11:39;;;;;;;23.30;6.90;;;;;;;1.55;46.87;101297.21;105845;1271;22732;-55
2022/03/13 08:14:12;;;;;;;21.90;7.00;;;;;;;1.73;46.64;101290.22;105738;1271;22775;-55
2022/03/13 08:16:44;;;;;;;19.40;5.70;;;;;;;1.87;46.27;101288.96;105778;1271;25463;-55
2022/03/13 08:19:16;;;;;;;20.90;6.70;;;;;;;2.09;46.00;101285.70;105849;1271;24406;-55
2022/03/13 08:21:48;;;;;;;23.00;7.10;;;;;;;2.27;45.60;101286.14;105901;1271;24797;-55
2022/03/13 08:24:20;;;;;;;25.30;8.20;;;;;;;2.38;45.28;101285.56;106031;1271;25688;-55
2022/03/13 08:26:52;;;;;;;23.20;5.90;;;;;;;2.50;45.12;101284.89;105877;1271;25631;-57
2022/03/13 08:29:23;;;;;;;26.90;8.20;;;;;;;2.65;44.80;101282.08;105863;1271;22620;-57
2022/03/13 08:31:55;;;;;;;18.60;5.80;;;;;;;2.81;44.46;101275.06;105775;1271;23947;-55
2022/03/13 08:34:29;;;;;;;20.80;5.90;;;;;;;2.95;43.93;101269.80;105737;1271;22591;-51
2022/03/13 08:37:01;;;;;;;25.80;7.90;;;;;;;3.14;43.25;101274.10;105771;1271;23964;-57
2022/03/13 08:39:32;;;;;;;21.10;6.30;;;;;;;3.33;42.73;101268.15;105952;1271;25414;-62
2022/03/13 08:42:04;;;;;;;23.70;6.30;;;;;;;3.58;42.41;101268.35;105805;1271;24311;-59
2022/03/13 08:44:36;;;;;;;21.40;6.80;;;;;;;3.78;42.38;101269.13;105895;1271;22546;-57
2022/03/13 08:47:08;;;;;;;22.60;7.80;;;;;;;3.93;41.96;101271.75;105865;1271;22634;-56
2022/03/13 08:49:39;;;;;;;21.30;6.10;;;;;;;4.09;41.65;101272.63;106097;1271;24317;-55
2022/03/13 08:52:11;;;;;;;17.60;6.50;;;;;;;4.19;41.05;101267.46;106037;1270;25504;-55
2022/03/13 08:54:43;;;;;;;19.30;6.10;;;;;;;4.31;40.89;101270.90;105911;1271;23121;-54
2022/03/13 08:57:14;;;;;;;23.10;6.20;;;;;;;4.42;40.42;101271.95;105634;1271;24286;-53
2022/03/13 08:59:46;;;;;;;16.80;5.50;;;;;;;4.56;40.44;101268.95;106323;1271;23011;-53
2022/03/13 09:02:21;;;;;;;19.60;6.20;;;;;;;4.71;39.75;101269.63;105657;1271;22567;-53
2022/03/13 09:04:53;;;;;;;21.90;6.40;;;;;;;4.86;39.61;101267.45;105774;1270;22608;-56
2022/03/13 09:07:25;;;;;;;19.10;5.00;;;;;;;4.94;39.45;101269.57;106270;1270;25401;-56
2022/03/13 09:09:57;;;;;;;18.00;4.60;;;;;;;5.06;38.61;101271.55;105665;1271;24437;-53
2022/03/13 09:12:30;;;;;;;18.10;5.50;;;;;;;5.17;38.26;101272.56;107297;1270;22541;-54
2022/03/13 09:15:02;;;;;;;18.70;4.60;;;;;;;5.26;38.23;101270.93;105547;1270;22541;-53
2022/03/13 09:17:34;;;;;;;16.80;4.20;;;;;;;5.34;37.69;101275.95;105728;1271;24234;-54
2022/03/13 09:20:07;;;;;;;16.60;4.80;;;;;;;5.43;37.75;101273.77;105742;1271;22768;-57
2022/03/13 09:22:38;;;;;;;16.00;4.60;;;;;;;5.49;37.53;101274.54;105926;1271;24221;-55
2022/03/13 09:25:11;;;;;;;19.00;5.50;;;;;;;5.54;37.46;101269.80;105908;1271;22553;-54
2022/03/13 09:27:43;;;;;;;15.30;5.30;;;;;;;5.64;37.33;101269.55;105977;1270;22560;-56
2022/03/13 09:30:16;;;;;;;20.20;5.20;;;;;;;5.73;37.04;101266.08;105836;1271;24291;-55
2022/03/13 09:32:49;;;;;;;15.00;4.20;;;;;;;5.83;36.91;101262.83;106262;1270;25572;-57
2022/03/13 09:35:21;;;;;;;13.90;3.40;;;;;;;5.96;36.50;101270.70;105696;1271;22553;-58
2022/03/13 09:37:52;;;;;;;18.20;5.40;;;;;;;6.08;36.46;101268.58;105869;1271;24317;-56
2022/03/13 09:40:26;;;;;;;15.90;5.10;;;;;;;6.16;36.09;101267.64;105873;1271;23201;-56
2022/03/13 09:42:58;;;;;;;15.20;3.90;;;;;;;6.23;35.80;101267.27;105774;1270;22695;-57
2022/03/13 09:45:30;;;;;;;18.30;6.00;;;;;;;6.35;35.59;101259.36;105622;1271;24583;-56
2022/03/13 09:48:02;;;;;;;19.70;6.80;;;;;;;6.41;35.81;101267.16;107945;1270;22660;-54
2022/03/13 09:50:34;;;;;;;18.90;6.80;;;;;;;6.47;35.68;101260.15;106248;1271;25359;-56
2022/03/13 09:53:06;;;;;;;17.60;5.20;;;;;;;6.53;35.42;101263.36;106493;1269;22619;-58
2022/03/13 09:55:40;;;;;;;19.20;5.80;;;;;;;6.56;35.17;101267.48;105883;1271;26662;-55
2022/03/13 09:58:12;;;;;;;21.20;6.50;;;;;;;6.61;35.02;101266.37;105996;1270;25307;-57
2022/03/13 10:00:44;;;;;;;24.90;8.90;;;;;;;6.66;34.84;101261.83;105823;1270;24198;-56
2022/03/13 10:03:15;;;;;;;22.50;7.30;;;;;;;6.70;34.72;101261.66;105902;1269;22555;-58
2022/03/13 10:05:48;;;;;;;23.30;6.20;;;;;;;6.78;33.97;101261.02;106185;1270;25001;-56
2022/03/13 10:08:21;;;;;;;16.40;4.30;;;;;;;6.92;33.59;101258.48;105801;1271;24254;-57
2022/03/13 10:10:53;;;;;;;17.70;5.50;;;;;;;7.02;33.75;101254.16;105840;1271;22552;-59
2022/03/13 10:13:38;;;;;;;16.50;5.70;;;;;;;7.06;33.71;101254.91;106880;1270;25386;-57
2022/03/13 10:16:18;;;;;;;16.60;4.70;;;;;;;7.13;33.68;101255.25;105830;1271;22541;-58
2022/03/13 10:18:50;;;;;;;20.20;4.90;;;;;;;7.20;33.63;101251.84;105784;1271;25363;-57
2022/03/13 10:21:21;;;;;;;20.00;5.50;;;;;;;7.28;33.24;101257.06;105713;1271;25246;-57
2022/03/13 10:23:53;;;;;;;15.00;3.90;;;;;;;7.31;33.12;101259.30;105991;1271;22644;-58
2022/03/13 10:26:32;;;;;;;15.50;5.50;;;;;;;7.39;32.89;101258.21;105717;1271;23037;-56
2022/03/13 10:29:07;;;;;;;16.40;4.70;;;;;;;7.48;32.90;101259.30;105868;1271;24325;-57
2022/03/13 10:31:38;;;;;;;16.80;4.70;;;;;;;7.55;32.57;101257.52;105791;1271;23182;-56
2022/03/13 10:34:10;;;;;;;17.40;4.70;;;;;;;7.60;32.21;101254.55;105865;1270;24217;-57
2022/03/13 10:36:45;;;;;;;17.40;5.00;;;;;;;7.67;32.06;101256.20;105998;1270;25887;-58
2022/03/13 10:39:20;;;;;;;15.60;4.20;;;;;;;7.72;32.11;101256.54;106309;1271;25351;-57
2022/03/13 10:41:59;;;;;;;16.60;4.50;;;;;;;7.77;31.97;101253.88;105818;1271;23278;-57
2022/03/13 10:44:34;;;;;;;15.10;4.30;;;;;;;7.82;31.55;101253.74;105746;1270;22685;-56
2022/03/13 10:47:08;;;;;;;15.10;4.70;;;;;;;7.87;31.11;101252.65;105787;1269;25509;-57
2022/03/13 10:49:41;;;;;;;14.00;3.30;;;;;;;7.94;30.98;101254.39;105789;1270;22889;-57
2022/03/13 10:52:31;;;;;;;12.00;2.70;;;;;;;7.98;30.88;101254.98;105851;1269;25523;-56
2022/03/13 10:55:22;;;;;;;14.50;3.70;;;;;;;8.02;30.91;101249.40;105733;1269;34745;-57
2022/03/13 10:57:56;;;;;;;14.60;3.60;;;;;;;8.06;30.76;101246.83;105743;1271;22696;-58
2022/03/13 11:00:28;;;;;;;15.90;3.70;;;;;;;8.10;30.25;101245.15;105810;1270;26042;-56
2022/03/13 11:03:12;;;;;;;14.40;3.60;;;;;;;8.14;30.00;101243.14;106242;1270;24214;-59
2022/03/13 11:05:44;;;;;;;15.70;3.60;;;;;;;8.23;29.97;101240.45;106093;1270;25124;-58
2022/03/13 11:08:15;;;;;;;14.20;3.40;;;;;;;8.28;29.87;101234.93;105866;1270;25248;-59
2022/03/13 11:10:48;;;;;;;13.40;3.20;;;;;;;8.36;29.56;101230.48;106195;1270;26624;-58
2022/03/13 11:13:21;;;;;;;18.50;5.00;;;;;;;8.50;29.07;101232.23;105895;1271;25400;-60
2022/03/13 11:15:54;;;;;;;19.30;5.10;;;;;;;8.58;29.03;101232.64;105559;1271;22610;-59
2022/03/13 11:18:32;;;;;;;14.90;3.90;;;;;;;8.62;28.66;101233.88;105658;1271;22720;-60
2022/03/13 11:21:07;;;;;;;14.40;3.70;;;;;;;8.66;28.63;101232.64;105796;1270;24263;-60
2022/03/13 11:23:39;;;;;;;14.10;2.80;;;;;;;8.67;28.45;101228.14;105811;1270;23217;-63
2022/03/13 11:26:13;;;;;;;16.70;3.90;;;;;;;8.72;28.29;101228.81;105903;1270;25654;-63
2022/03/13 11:28:47;;;;;;;11.80;2.90;;;;;;;8.78;27.98;101232.91;106087;1270;22787;-56
2022/03/13 11:31:33;;;;;;;16.00;3.80;;;;;;;8.81;27.89;101230.04;105819;1270;26328;-58
2022/03/13 11:34:16;;;;;;;18.70;4.20;;;;;;;8.85;28.01;101228.02;105822;1270;22545;-58
2022/03/13 11:36:48;;;;;;;14.70;3.80;;;;;;;8.93;27.63;101226.89;105878;1270;25503;-58
2022/03/13 11:41:57;;;;;;;13.20;3.70;;;;;;;9.10;27.40;101221.85;107486;1260;99931;-79
2022/03/13 11:44:44;;;;;;;14.00;4.20;;;;;;;9.13;27.60;101216.74;107169;1267;22687;-77
2022/03/13 11:47:26;;;;;;;13.50;3.70;;;;;;;9.16;27.14;101216.30;106980;1268;25859;-77
2022/03/13 11:49:58;;;;;;;15.60;4.00;;;;;;;9.17;26.94;101210.55;107484;1268;24232;-78
2022/03/13 11:52:32;;;;;;;14.80;4.10;;;;;;;9.20;26.74;101208.48;107808;1271;22553;-79
2022/03/13 11:55:10;;;;;;;12.80;3.90;;;;;;;9.25;26.42;101204.73;108262;1271;22546;-79
2022/03/13 11:57:50;;;;;;;15.40;3.50;;;;;;;9.29;26.41;101207.77;108440;1271;22539;-79
2022/03/13 12:00:32;;;;;;;13.40;2.90;;;;;;;9.31;26.60;101204.42;107675;1270;24276;-79
2022/03/13 12:03:13;;;;;;;14.20;3.60;;;;;;;9.32;26.42;101198.84;107579;1271;25366;-79
2022/03/13 12:05:57;;;;;;;12.10;2.70;;;;;;;9.35;26.27;101194.35;107683;1269;22548;-79
2022/03/13 12:09:07;;;;;;;15.90;4.40;;;;;;;9.42;25.89;101195.27;107203;1271;22541;-79
2022/03/13 12:11:40;;;;;;;12.30;3.30;;;;;;;9.46;26.31;101187.93;107141;1270;23125;-80
2022/03/13 12:14:13;;;;;;;19.40;5.10;;;;;;;9.49;26.16;101187.91;107650;1271;22594;-78
2022/03/13 12:16:46;;;;;;;12.10;3.50;;;;;;;9.51;26.39;101181.55;107112;1271;23081;-78
2022/03/13 12:19:18;;;;;;;17.30;4.60;;;;;;;9.56;26.04;101181.08;106966;1271;22488;-78
2022/03/13 12:21:49;;;;;;;19.00;5.80;;;;;;;9.61;26.03;101179.48;107170;1271;22577;-79
2022/03/13 12:24:22;;;;;;;17.10;5.80;;;;;;;9.63;26.12;101173.09;107596;1270;25537;-81
2022/03/13 12:26:53;;;;;;;19.00;6.00;;;;;;;9.66;26.06;101174.91;107591;1271;22685;-79
2022/03/13 12:29:24;;;;;;;16.50;4.80;;;;;;;9.67;25.81;101170.09;106977;1271;25547;-78
2022/03/13 12:31:57;;;;;;;22.40;5.30;;;;;;;9.71;26.08;101162.15;106793;1271;24352;-78
2022/03/13 12:34:31;;;;;;;17.10;5.10;;;;;;;9.76;26.04;101160.00;106867;1271;22725;-77
2022/03/13 12:37:09;;;;;;;18.20;5.70;;;;;;;9.79;26.17;101157.50;106673;1271;22536;-78
2022/03/13 12:39:52;;;;;;;20.90;6.10;;;;;;;9.86;26.07;101160.21;107047;1271;25441;-77
2022/03/13 12:42:25;;;;;;;22.70;7.50;;;;;;;9.89;25.95;101163.68;106901;1271;22537;-78
2022/03/13 12:45:11;;;;;;;24.60;8.70;;;;;;;9.88;25.99;101163.02;106877;1271;22657;-77
2022/03/13 12:47:47;;;;;;;20.90;7.10;;;;;;;9.87;25.75;101160.96;107558;1271;22630;-81
2022/03/13 12:50:21;;;;;;;26.10;8.40;;;;;;;9.88;26.03;101157.16;107127;1271;22566;-79
2022/03/13 12:53:02;;;;;;;26.00;7.90;;;;;;;9.89;26.07;101155.06;107301;1271;25270;-79
2022/03/13 12:55:33;;;;;;;25.40;9.40;;;;;;;9.87;26.15;101156.41;107177;1271;23114;-79
2022/03/13 12:58:05;;;;;;;33.30;9.10;;;;;;;9.90;26.14;101156.71;107254;1270;24259;-80
2022/03/13 13:00:40;;;;;;;23.40;7.80;;;;;;;9.95;25.73;101154.96;106913;1271;22630;-77
2022/03/13 13:03:13;;;;;;;25.50;8.40;;;;;;;10.00;25.85;101154.77;106717;1271;22523;-76
2022/03/13 13:05:52;;;;;;;30.50;9.70;;;;;;;10.00;25.58;101152.27;106850;1271;22676;-78
2022/03/13 13:08:24;;;;;;;22.80;7.10;;;;;;;10.02;25.44;101147.73;106927;1271;22591;-77
2022/03/13 13:11:00;;;;;;;26.10;8.70;;;;;;;10.08;25.48;101144.98;106887;1270;24217;-77
2022/03/13 13:13:32;;;;;;;36.60;12.50;;;;;;;10.13;25.17;101144.76;107081;1271;22560;-79
2022/03/13 13:16:03;;;;;;;28.80;10.20;;;;;;;10.14;25.25;101138.71;107836;1271;22534;-79
2022/03/13 13:18:34;;;;;;;20.70;7.30;;;;;;;10.19;25.08;101139.42;107202;1271;22534;-81
2022/03/13 13:21:12;;;;;;;24.20;8.30;;;;;;;10.23;25.34;101135.30;107622;1268;22681;-80
2022/03/13 13:23:43;;;;;;;25.20;9.30;;;;;;;10.25;25.32;101134.25;107912;1270;22700;-79
2022/03/13 13:26:14;;;;;;;24.70;7.60;;;;;;;10.24;25.34;101135.14;107749;1271;22560;-80
2022/03/13 13:29:00;;;;;;;29.80;11.10;;;;;;;10.23;25.40;101134.34;108092;1271;25508;-80
2022/03/13 13:31:31;;;;;;;27.20;10.60;;;;;;;10.22;25.24;101137.55;107708;1271;25336;-82
2022/03/13 13:34:15;;;;;;;39.00;17.70;;;;;;;10.25;25.45;101136.80;107949;1271;22554;-80
2022/03/13 13:36:47;;;;;;;35.90;14.90;;;;;;;10.27;25.39;101137.69;108153;1269;25927;-77
2022/03/13 13:39:23;;;;;;;57.60;23.50;;;;;;;10.28;25.62;101136.20;107222;1271;22693;-79
2022/03/13 13:42:02;;;;;;;45.40;18.30;;;;;;;10.29;25.52;101140.02;107396;1271;22581;-81
2022/03/13 13:44:33;;;;;;;33.90;12.80;;;;;;;10.29;25.58;101135.61;106984;1271;22764;-77
2022/03/13 13:47:09;;;;;;;30.30;11.30;;;;;;;10.29;25.25;101136.02;106917;1271;22620;-78
2022/03/13 13:49:41;;;;;;;42.10;16.30;;;;;;;10.31;25.49;101130.61;106872;1271;22690;-77
2022/03/13 13:52:17;;;;;;;37.40;13.80;;;;;;;10.32;25.46;101136.54;106874;1271;24793;-78
2022/03/13 13:54:48;;;;;;;38.50;12.70;;;;;;;10.32;25.29;101136.02;106890;1271;22613;-77
2022/03/13 13:57:22;;;;;;;28.50;10.80;;;;;;;10.30;25.21;101136.16;106804;1271;22566;-76
2022/03/13 13:59:54;;;;;;;30.60;11.20;;;;;;;10.28;25.09;101134.96;106961;1271;22700;-77
2022/03/13 14:02:27;;;;;;;31.20;11.20;;;;;;;10.25;25.20;101134.48;107007;1271;22553;-78
2022/03/13 14:04:59;;;;;;;32.70;11.90;;;;;;;10.24;25.01;101135.73;106629;1271;23643;-77
2022/03/13 14:07:32;;;;;;;30.30;11.70;;;;;;;10.23;24.99;101137.69;107079;1270;22540;-77
2022/03/13 14:10:08;;;;;;;28.20;10.30;;;;;;;10.26;25.03;101140.77;106807;1271;22767;-77
2022/03/13 14:12:42;;;;;;;30.10;11.60;;;;;;;10.26;24.73;101134.14;106963;1271;26534;-78
2022/03/13 14:15:16;;;;;;;30.20;11.30;;;;;;;10.26;24.69;101135.32;106858;1271;23069;-77
2022/03/13 14:17:49;;;;;;;36.10;12.80;;;;;;;10.25;24.87;101131.38;106712;1268;22554;-78
2022/03/13 14:20:22;;;;;;;40.30;14.80;;;;;;;10.26;24.77;101132.06;106695;1269;22525;-77
2022/03/13 14:22:54;;;;;;;28.30;12.40;;;;;;;10.26;24.67;101129.83;106898;1268;25509;-78
2022/03/13 14:25:28;;;;;;;35.10;12.50;;;;;;;10.27;24.76;101128.59;106767;1271;22671;-78
2022/03/13 14:28:00;;;;;;;30.20;12.60;;;;;;;10.28;24.87;101127.83;106631;1271;24262;-78
2022/03/13 14:30:32;;;;;;;38.40;16.30;;;;;;;10.30;24.68;101127.62;106685;1271;22484;-78
2022/03/13 14:33:06;;;;;;;35.90;13.80;;;;;;;10.30;24.67;101126.64;106747;1271;25672;-77
2022/03/13 14:35:37;;;;;;;35.70;15.30;;;;;;;10.31;24.89;101123.75;107173;1268;22589;-77
2022/03/13 14:38:08;;;;;;;34.90;13.40;;;;;;;10.32;25.00;101123.33;106705;1271;23300;-78
2022/03/13 14:40:41;;;;;;;31.60;12.70;;;;;;;10.31;24.75;101125.58;106698;1271;24246;-76
2022/03/13 14:43:16;;;;;;;46.40;19.10;;;;;;;10.30;24.71;101126.27;106413;1269;369115;-76
2022/03/13 14:45:48;;;;;;;36.20;14.80;;;;;;;10.29;24.77;101127.40;106620;1271;26688;-77
2022/03/13 14:48:22;;;;;;;39.40;16.90;;;;;;;10.28;24.76;101127.04;106756;1270;25217;-78
2022/03/13 14:50:54;;;;;;;33.00;12.80;;;;;;;10.26;24.66;101126.08;106898;1271;24224;-77
2022/03/13 14:53:27;;;;;;;33.30;12.80;;;;;;;10.26;24.58;101124.70;106817;1271;22564;-78
2022/03/13 14:55:59;;;;;;;31.80;13.50;;;;;;;10.28;24.51;101122.84;106914;1268;24222;-78
2022/03/13 14:58:34;;;;;;;31.80;12.90;;;;;;;10.27;24.43;101119.73;107100;1270;25378;-77
2022/03/13 15:01:07;;;;;;;33.90;14.30;;;;;;;10.30;24.51;101118.82;106962;1271;23980;-77
2022/03/13 15:03:38;;;;;;;41.60;15.30;;;;;;;10.31;24.72;101119.85;106762;1271;25510;-77
2022/03/13 15:06:10;;;;;;;38.20;14.60;;;;;;;10.28;24.53;101119.05;107006;1271;23140;-76
2022/03/13 15:08:43;;;;;;;57.20;25.00;;;;;;;10.27;24.48;101120.56;106930;1271;23523;-77
2022/03/13 15:11:15;;;;;;;57.10;21.00;;;;;;;10.25;24.57;101117.76;106769;1271;22608;-78
2022/03/13 15:13:46;;;;;;;37.50;13.00;;;;;;;10.23;24.39;101117.20;106892;1268;22628;-78
2022/03/13 15:16:19;;;;;;;29.30;12.10;;;;;;;10.21;24.36;101119.51;106910;1269;25344;-78
2022/03/13 15:18:54;;;;;;;30.80;11.80;;;;;;;10.19;24.27;101117.50;106985;1271;24234;-78
2022/03/13 15:21:29;;;;;;;39.00;14.80;;;;;;;10.16;24.24;101117.46;107018;1271;22530;-79
2022/03/13 15:24:01;;;;;;;38.10;16.20;;;;;;;10.14;24.25;101115.36;106875;1271;22525;-76
2022/03/13 15:26:36;;;;;;;30.10;12.30;;;;;;;10.12;24.30;101114.09;106783;1270;24236;-77
2022/03/13 15:29:09;;;;;;;31.70;12.70;;;;;;;10.09;24.22;101116.33;107038;1271;28080;-77
2022/03/13 15:31:42;;;;;;;28.60;9.80;;;;;;;10.07;24.21;101113.05;107122;1270;22556;-79
2022/03/13 15:34:16;;;;;;;31.50;11.60;;;;;;;10.06;24.16;101116.05;107402;1271;22663;-78
2022/03/13 15:36:52;;;;;;;35.60;12.40;;;;;;;10.04;24.21;101111.89;107402;1270;22537;-79
2022/03/13 15:39:25;;;;;;;41.20;14.70;;;;;;;10.02;24.16;101113.64;107760;1271;22549;-79
2022/03/13 15:41:58;;;;;;;59.40;24.10;;;;;;;9.99;24.18;101117.42;107288;1271;22538;-78
2022/03/13 15:44:32;;;;;;;40.60;13.30;;;;;;;9.96;24.19;101120.11;107120;1271;25691;-78
2022/03/13 15:47:08;;;;;;;30.90;12.30;;;;;;;9.93;23.92;101114.62;106803;1271;24359;-76
2022/03/13 15:49:44;;;;;;;29.90;10.20;;;;;;;9.89;24.14;101117.70;106963;1271;91663;-76
2022/03/13 15:52:18;;;;;;;23.10;8.10;;;;;;;9.86;24.45;101121.14;106978;1271;22550;-76
2022/03/13 15:54:54;;;;;;;23.10;7.40;;;;;;;9.82;25.17;101118.11;107258;1270;25363;-76
2022/03/13 15:57:36;;;;;;;23.70;9.10;;;;;;;9.77;25.61;101121.16;107162;1270;22940;-77
2022/03/13 16:00:13;;;;;;;28.50;10.80;;;;;;;9.71;25.95;101121.37;108484;1269;23355;-77
2022/03/13 16:02:53;;;;;;;39.80;14.90;;;;;;;9.66;26.26;101124.41;107420;1270;25352;-76
2022/03/13 16:05:28;;;;;;;44.10;14.90;;;;;;;9.60;26.43;101120.70;107666;1270;25740;-77
2022/03/13 16:08:01;;;;;;;41.10;16.70;;;;;;;9.56;26.49;101127.40;106960;1270;25412;-78
2022/03/13 16:10:36;;;;;;;42.70;16.10;;;;;;;9.50;26.72;101126.16;106966;1271;23110;-76
2022/03/13 16:13:10;;;;;;;46.40;18.80;;;;;;;9.45;26.93;101123.09;107103;1270;24271;-77
2022/03/13 16:15:43;;;;;;;44.70;16.10;;;;;;;9.39;27.09;101123.92;106812;1271;22531;-77
2022/03/13 16:18:19;;;;;;;45.10;17.50;;;;;;;9.34;27.35;101125.04;106663;1269;22550;-77
2022/03/13 16:20:56;;;;;;;35.80;13.80;;;;;;;9.28;27.40;101124.61;106918;1271;22533;-77
2022/03/13 16:23:33;;;;;;;39.60;15.70;;;;;;;9.22;27.52;101129.66;107254;1271;25417;-77
2022/03/13 16:26:07;;;;;;;41.40;15.40;;;;;;;9.17;27.67;101129.04;107035;1271;23259;-78
2022/03/13 16:28:41;;;;;;;38.90;15.50;;;;;;;9.11;27.95;101127.41;106844;1271;25417;-79
2022/03/13 16:31:13;;;;;;;38.90;14.50;;;;;;;9.05;28.03;101129.51;106869;1271;22533;-77
2022/03/13 16:33:45;;;;;;;33.40;11.00;;;;;;;9.00;28.14;101132.32;107035;1271;24655;-79
2022/03/13 16:36:17;;;;;;;24.70;9.60;;;;;;;8.93;28.24;101133.40;107571;1268;22569;-78
2022/03/13 16:38:51;;;;;;;25.00;9.50;;;;;;;8.87;28.53;101132.80;106964;1271;24376;-78
2022/03/13 16:41:24;;;;;;;24.90;8.40;;;;;;;8.80;28.59;101138.36;106844;1271;22696;-77
2022/03/13 16:43:59;;;;;;;22.80;8.40;;;;;;;8.73;28.76;101140.38;106856;1271;22764;-79
2022/03/13 16:46:31;;;;;;;22.50;7.90;;;;;;;8.67;28.87;101139.86;107387;1271;23104;-80
2022/03/13 16:49:06;;;;;;;21.70;8.00;;;;;;;8.61;28.94;101140.77;108232;1269;23382;-80
2022/03/13 16:51:41;;;;;;;20.50;8.30;;;;;;;8.54;29.22;101144.40;108059;1268;22570;-79
2022/03/13 16:54:14;;;;;;;23.20;8.30;;;;;;;8.48;29.42;101141.35;109327;1267;23893;-79
2022/03/13 16:56:47;;;;;;;23.30;8.30;;;;;;;8.42;29.45;101144.23;107266;1268;22531;-79
2022/03/13 16:59:19;;;;;;;21.70;8.20;;;;;;;8.35;29.55;101143.14;107311;1267;24234;-79
2022/03/13 17:01:53;;;;;;;19.60;7.40;;;;;;;8.28;29.67;101146.75;107001;1268;22537;-79
2022/03/13 17:04:25;;;;;;;23.10;9.30;;;;;;;8.21;29.86;101147.24;107405;1268;24772;-79
2022/03/13 17:06:57;;;;;;;25.60;9.70;;;;;;;8.14;29.98;101151.02;107205;1268;22527;-80
2022/03/13 17:09:29;;;;;;;26.70;9.30;;;;;;;8.07;30.07;101152.33;106933;1268;24290;-79
2022/03/13 17:12:00;;;;;;;22.50;8.10;;;;;;;8.01;30.40;101154.17;107010;1268;22546;-79
2022/03/13 17:14:32;;;;;;;23.40;7.90;;;;;;;7.94;30.15;101157.54;106876;1268;23334;-79
2022/03/13 17:17:05;;;;;;;24.20;8.40;;;;;;;7.87;30.50;101157.20;106741;1268;22553;-78
2022/03/13 17:19:38;;;;;;;28.40;10.50;;;;;;;7.79;30.58;101158.83;106867;1268;23116;-78
2022/03/13 17:22:10;;;;;;;26.90;10.80;;;;;;;7.72;30.71;101161.80;106866;1268;22651;-79
2022/03/13 17:24:42;;;;;;;27.80;9.90;;;;;;;7.65;30.86;101167.69;106944;1268;22521;-78
2022/03/13 17:27:13;;;;;;;27.30;10.20;;;;;;;7.58;30.94;101168.21;106993;1268;22818;-78
2022/03/13 17:29:45;;;;;;;27.30;10.20;;;;;;;7.51;31.09;101171.41;106983;1268;22588;-78
2022/03/13 17:32:18;;;;;;;34.20;13.70;;;;;;;7.44;31.19;101176.42;106976;1268;24221;-78
2022/03/13 17:34:49;;;;;;;40.40;16.30;;;;;;;7.37;31.41;101172.41;106982;1268;24390;-79
2022/03/13 17:37:21;;;;;;;32.70;12.60;;;;;;;7.29;31.62;101174.23;106962;1268;23622;-78